createdAt,value
2022-08-27T00:02:31.246Z,15.60
2022-08-27T00:05:37.051Z,15.50
2022-08-27T00:08:40.654Z,15.50
2022-08-27T00:11:45.149Z,15.50
2022-08-27T00:14:49.933Z,15.40
2022-08-27T00:17:53.550Z,15.40
2022-08-27T00:20:56.883Z,15.30
2022-08-27T00:24:00.310Z,15.40
2022-08-27T00:27:04.544Z,15.30
2022-08-27T00:30:13.734Z,17.80
2022-08-27T00:33:17.084Z,15.20
2022-08-27T00:36:20.521Z,15.20
2022-08-27T00:39:23.840Z,15.10
2022-08-27T00:42:27.135Z,15.00
2022-08-27T00:45:41.463Z,14.90
2022-08-27T00:48:44.852Z,14.90
2022-08-27T00:51:54.962Z,14.90
2022-08-27T00:55:03.749Z,14.90
2022-08-27T00:58:14.885Z,14.90
2022-08-27T01:01:22.072Z,14.90
2022-08-27T01:04:25.560Z,14.80
2022-08-27T01:07:31.482Z,14.80
2022-08-27T01:10:35.748Z,14.80
2022-08-27T01:13:54.446Z,14.80
2022-08-27T01:17:07.418Z,14.70
2022-08-27T01:20:16.499Z,14.70
2022-08-27T01:23:25.771Z,14.70
2022-08-27T01:26:31.761Z,14.70
2022-08-27T01:29:35.657Z,13.30
2022-08-27T01:32:39.962Z,14.60
2022-08-27T01:35:44.115Z,14.70
2022-08-27T01:38:47.673Z,14.70
2022-08-27T01:44:59.224Z,14.70
2022-08-27T01:51:07.370Z,14.60
2022-08-27T01:54:10.937Z,14.60
2022-08-27T01:57:16.545Z,14.50
2022-08-27T02:00:23.554Z,14.20
2022-08-27T02:03:27.563Z,14.60
2022-08-27T02:06:30.950Z,14.50
2022-08-27T02:09:34.359Z,14.50
2022-08-27T02:12:39.192Z,14.50
2022-08-27T02:15:43.347Z,14.50
2022-08-27T02:18:47.321Z,14.40
2022-08-27T02:21:51.225Z,14.40
2022-08-27T02:24:54.657Z,14.40
2022-08-27T02:28:00.723Z,14.40
2022-08-27T02:31:04.831Z,14.30
2022-08-27T02:34:10.789Z,16.30
2022-08-27T02:37:14.531Z,14.30
2022-08-27T02:40:20.545Z,14.20
2022-08-27T02:43:25.728Z,14.20
2022-08-27T02:46:31.675Z,14.20
2022-08-27T02:49:35.231Z,14.20
2022-08-27T02:52:38.870Z,14.20
2022-08-27T02:55:42.180Z,14.10
2022-08-27T02:58:47.034Z,14.10
2022-08-27T03:01:52.746Z,14.10
2022-08-27T03:04:56.100Z,14.10
2022-08-27T03:07:59.864Z,14.10
2022-08-27T03:11:03.220Z,14.10
2022-08-27T03:17:29.229Z,14.00
2022-08-27T03:20:33.280Z,14.00
2022-08-27T03:23:36.757Z,14.00
2022-08-27T03:26:40.559Z,14.00
2022-08-27T03:32:48.929Z,16.40
2022-08-27T03:35:52.321Z,13.90
2022-08-27T03:38:55.663Z,13.90
2022-08-27T03:41:59.271Z,13.90
2022-08-27T03:45:04.947Z,13.90
2022-08-27T03:48:08.273Z,13.80
2022-08-27T03:51:15.180Z,13.90
2022-08-27T03:54:18.543Z,13.90
2022-08-27T03:57:21.885Z,13.90
2022-08-27T04:00:27.310Z,13.90
2022-08-27T04:03:31.731Z,13.90
2022-08-27T04:06:36.013Z,13.90
2022-08-27T04:09:39.332Z,14.00
2022-08-27T04:12:43.289Z,14.00
2022-08-27T04:15:50.046Z,14.10
2022-08-27T04:18:53.368Z,14.20
2022-08-27T04:22:01.724Z,14.20
2022-08-27T04:25:05.443Z,14.30
2022-08-27T04:28:14.769Z,14.30
2022-08-27T04:31:20.153Z,14.50
2022-08-27T04:34:23.581Z,14.50
2022-08-27T04:37:31.050Z,14.50
2022-08-27T04:40:51.795Z,14.60
2022-08-27T04:43:58.171Z,14.80
2022-08-27T04:47:05.482Z,15.00
2022-08-27T04:50:09.310Z,15.10
2022-08-27T04:53:13.554Z,15.20
2022-08-27T04:56:19.305Z,15.20
2022-08-27T04:59:22.859Z,15.30
2022-08-27T05:02:27.519Z,15.40
2022-08-27T05:05:30.882Z,15.60
2022-08-27T05:08:35.065Z,15.70
2022-08-27T05:11:38.977Z,15.90
2022-08-27T05:14:42.357Z,16.10
2022-08-27T05:17:47.410Z,16.20
2022-08-27T05:20:51.054Z,16.40
2022-08-27T05:23:56.583Z,16.60
2022-08-27T05:26:59.874Z,16.80
2022-08-27T05:30:03.472Z,16.90
2022-08-27T05:33:08.899Z,17.10
2022-08-27T05:36:18.339Z,17.30
2022-08-27T05:39:21.724Z,17.40
2022-08-27T05:42:25.160Z,17.60
2022-08-27T05:45:29.116Z,17.80
2022-08-27T05:48:36.023Z,18.00
2022-08-27T05:51:39.289Z,18.10
2022-08-27T05:54:42.691Z,18.30
2022-08-27T05:57:45.967Z,18.50
2022-08-27T06:01:09.568Z,18.60
2022-08-27T06:04:18.036Z,18.80
2022-08-27T06:07:21.861Z,18.90
2022-08-27T06:10:25.160Z,19.00
2022-08-27T06:13:28.517Z,19.10
2022-08-27T06:16:31.909Z,19.30
2022-08-27T06:22:40.447Z,19.60
2022-08-27T06:25:43.867Z,19.70
2022-08-27T06:28:48.080Z,19.90
2022-08-27T06:31:52.658Z,20.00
2022-08-27T06:34:57.665Z,20.10
2022-08-27T06:38:01.040Z,20.20
2022-08-27T06:41:05.777Z,20.30
2022-08-27T06:44:20.379Z,20.50
2022-08-27T06:47:23.874Z,20.50
2022-08-27T06:50:28.740Z,20.70
2022-08-27T06:53:32.325Z,20.90
2022-08-27T06:56:36.675Z,21.00
2022-08-27T06:59:40.127Z,19.20
2022-08-27T07:02:44.870Z,21.20
2022-08-27T07:05:49.730Z,21.30
2022-08-27T07:08:53.483Z,21.40
2022-08-27T07:11:57.454Z,21.50
2022-08-27T07:15:01.128Z,21.60
2022-08-27T07:18:04.885Z,21.70
2022-08-27T07:21:10.855Z,22.00
2022-08-27T07:24:15.017Z,22.00
2022-08-27T07:27:18.435Z,22.10
2022-08-27T07:30:21.832Z,22.20
2022-08-27T07:33:25.318Z,22.30
2022-08-27T07:36:30.536Z,22.50
2022-08-27T07:39:33.945Z,22.50
2022-08-27T07:42:54.646Z,22.50
2022-08-27T07:45:58.522Z,22.60
2022-08-27T07:49:02.175Z,22.60
2022-08-27T07:52:07.134Z,22.80
2022-08-27T07:55:11.659Z,23.00
2022-08-27T07:58:18.490Z,23.10
2022-08-27T08:01:24.086Z,23.20
2022-08-27T08:04:27.694Z,23.40
2022-08-27T08:07:32.614Z,23.40
2022-08-27T08:10:37.425Z,23.50
2022-08-27T08:13:41.166Z,23.70
2022-08-27T08:16:44.570Z,23.70
2022-08-27T08:20:08.493Z,23.90
2022-08-27T08:26:18.479Z,24.10
2022-08-27T08:29:22.207Z,24.30
2022-08-27T08:32:25.674Z,24.40
2022-08-27T08:35:34.945Z,24.50
2022-08-27T08:38:48.438Z,24.70
2022-08-27T08:41:55.038Z,24.70
2022-08-27T08:45:00.530Z,24.80
2022-08-27T08:48:07.806Z,24.90
2022-08-27T08:51:17.562Z,25.20
2022-08-27T08:54:24.307Z,25.20
2022-08-27T08:57:32.185Z,25.30
2022-08-27T09:00:36.810Z,25.50
2022-08-27T09:03:43.829Z,25.60
2022-08-27T09:06:53.484Z,25.80
2022-08-27T09:10:03.412Z,26.10
2022-08-27T09:13:07.432Z,26.10
2022-08-27T09:16:11.604Z,26.20
2022-08-27T09:19:15.426Z,26.40
2022-08-27T09:22:25.065Z,26.50
2022-08-27T09:25:33.568Z,26.80
2022-08-27T09:29:00.064Z,26.70
2022-08-27T09:32:08.470Z,27.00
2022-08-27T09:35:16.048Z,27.20
2022-08-27T09:38:28.117Z,27.20
2022-08-27T09:41:41.577Z,27.50
2022-08-27T09:44:53.401Z,27.40
2022-08-27T09:48:04.855Z,27.70
2022-08-27T09:51:11.120Z,27.60
2022-08-27T09:54:29.007Z,27.80
2022-08-27T09:57:37.319Z,27.80
2022-08-27T10:00:42.540Z,27.90
2022-08-27T10:03:46.996Z,28.20
2022-08-27T10:07:20.716Z,28.40
2022-08-27T10:10:31.534Z,28.40
2022-08-27T10:13:45.362Z,28.50
2022-08-27T10:17:00.386Z,28.50
2022-08-27T10:20:10.993Z,28.80
2022-08-27T10:23:23.723Z,29.00
2022-08-27T10:26:33.898Z,28.90
2022-08-27T10:29:43.770Z,29.20
2022-08-27T10:32:52.769Z,29.10
2022-08-27T10:36:03.058Z,29.40
2022-08-27T10:39:20.990Z,29.50
2022-08-27T10:42:30.386Z,29.60
2022-08-27T10:45:45.630Z,29.70
2022-08-27T10:48:59.007Z,29.80
2022-08-27T10:52:08.647Z,30.00
2022-08-27T10:55:15.443Z,30.10
2022-08-27T10:58:31.797Z,30.40
2022-08-27T11:01:45.803Z,30.60
2022-08-27T11:04:52.913Z,30.50
2022-08-27T11:08:03.643Z,30.40
2022-08-27T11:11:57.149Z,30.70
2022-08-27T11:14:37.597Z,30.70
2022-08-27T11:17:47.085Z,31.00
2022-08-27T11:20:58.232Z,31.20
2022-08-27T11:24:11.565Z,31.50
2022-08-27T11:27:18.056Z,31.90
2022-08-27T11:30:28.185Z,32.10
2022-08-27T11:33:45.482Z,32.80
2022-08-27T11:37:25.173Z,33.50
2022-08-27T11:40:39.518Z,33.40
2022-08-27T11:43:45.019Z,33.40
2022-08-27T11:46:52.074Z,33.00
2022-08-27T11:49:59.656Z,33.90
2022-08-27T11:53:06.248Z,34.10
2022-08-27T11:56:16.341Z,34.10
2022-08-27T11:59:28.460Z,34.10
2022-08-27T12:02:31.962Z,34.30
2022-08-27T12:05:40.873Z,35.00
2022-08-27T12:08:44.532Z,35.10
2022-08-27T12:11:59.983Z,34.60
2022-08-27T12:15:09.775Z,35.30
2022-08-27T12:18:51.847Z,36.90
2022-08-27T12:22:18.682Z,36.50
2022-08-27T12:25:23.818Z,36.50
2022-08-27T12:28:28.575Z,36.70
2022-08-27T12:31:32.796Z,36.20
2022-08-27T12:34:45.269Z,36.00
2022-08-27T12:37:54.002Z,35.40
2022-08-27T12:41:05.309Z,35.50
2022-08-27T12:44:10.785Z,35.40
2022-08-27T12:47:17.093Z,35.80
2022-08-27T12:50:27.069Z,35.80
2022-08-27T12:53:43.531Z,36.50
2022-08-27T12:56:58.017Z,36.40
2022-08-27T13:00:12.436Z,37.10
2022-08-27T13:03:24.138Z,36.30
2022-08-27T13:06:32.404Z,36.70
2022-08-27T13:09:39.459Z,36.80
2022-08-27T13:12:44.298Z,37.30
2022-08-27T13:15:50.265Z,37.70
2022-08-27T13:18:54.360Z,38.00
2022-08-27T13:21:58.866Z,37.10
2022-08-27T13:25:04.060Z,35.40
2022-08-27T13:28:12.821Z,36.50
2022-08-27T13:31:18.023Z,36.40
2022-08-27T13:34:25.710Z,35.00
2022-08-27T13:37:34.569Z,33.00
2022-08-27T13:40:54.545Z,32.40
2022-08-27T13:43:59.763Z,32.40
2022-08-27T13:47:05.938Z,32.00
2022-08-27T13:50:15.557Z,32.20
2022-08-27T13:53:42.459Z,32.70
2022-08-27T13:57:09.573Z,32.60
2022-08-27T14:00:18.366Z,32.10
2022-08-27T14:03:31.433Z,33.60
2022-08-27T14:06:41.205Z,33.90
2022-08-27T14:09:54.206Z,33.50
2022-08-27T14:13:02.037Z,33.70
2022-08-27T14:16:16.156Z,34.40
2022-08-27T14:19:28.161Z,34.30
2022-08-27T14:22:31.713Z,33.30
2022-08-27T14:25:35.859Z,34.30
2022-08-27T14:28:40.725Z,34.70
2022-08-27T14:31:44.504Z,34.50
2022-08-27T14:34:48.396Z,33.70
2022-08-27T14:37:52.233Z,34.60
2022-08-27T14:40:58.907Z,34.20
2022-08-27T14:44:04.177Z,33.80
2022-08-27T14:47:10.852Z,33.60
2022-08-27T14:50:15.143Z,33.30
2022-08-27T14:53:19.872Z,33.60
2022-08-27T14:56:25.207Z,34.10
2022-08-27T15:05:47.060Z,34.00
2022-08-27T15:08:52.569Z,33.90
2022-08-27T15:11:57.215Z,34.20
2022-08-27T15:15:01.987Z,34.20
2022-08-27T15:18:05.550Z,33.90
2022-08-27T15:21:09.029Z,34.30
2022-08-27T15:24:18.233Z,34.30
2022-08-27T15:27:22.210Z,35.90
2022-08-27T15:30:30.229Z,35.70
2022-08-27T15:33:33.730Z,34.60
2022-08-27T15:39:41.332Z,35.10
2022-08-27T15:42:45.165Z,35.30
2022-08-27T15:45:49.917Z,34.10
2022-08-27T15:48:53.780Z,34.10
2022-08-27T15:51:59.639Z,34.00
2022-08-27T15:55:04.168Z,34.90
2022-08-27T15:58:08.844Z,34.20
2022-08-27T16:01:17.249Z,34.30
2022-08-27T16:04:21.313Z,34.40
2022-08-27T16:07:25.008Z,34.40
2022-08-27T16:10:28.837Z,35.10
2022-08-27T16:13:32.766Z,35.10
2022-08-27T16:19:42.008Z,32.00
2022-08-27T16:22:46.220Z,30.60
2022-08-27T16:25:49.648Z,29.70
2022-08-27T16:32:01.151Z,27.70
2022-08-27T16:35:05.720Z,27.70
2022-08-27T16:38:09.816Z,27.40
2022-08-27T16:41:14.122Z,27.20
2022-08-27T16:44:18.065Z,26.60
2022-08-27T16:47:23.227Z,26.10
2022-08-27T16:50:43.788Z,25.90
2022-08-27T16:53:50.971Z,25.60
2022-08-27T16:56:54.566Z,25.40
2022-08-27T16:59:58.268Z,25.10
2022-08-27T17:06:09.995Z,24.60
2022-08-27T17:09:14.515Z,24.10
2022-08-27T17:12:22.193Z,24.00
2022-08-27T17:15:26.257Z,23.80
2022-08-27T17:18:34.089Z,23.50
2022-08-27T17:21:38.292Z,23.40
2022-08-27T17:24:42.546Z,23.10
2022-08-27T17:30:51.127Z,22.60
2022-08-27T17:33:59.177Z,22.40
2022-08-27T17:37:03.037Z,22.40
2022-08-27T17:40:08.218Z,22.10
2022-08-27T17:43:11.813Z,21.80
2022-08-27T17:46:17.218Z,21.80
2022-08-27T17:49:25.596Z,21.60
2022-08-27T17:55:34.374Z,21.20
2022-08-27T17:58:38.042Z,20.90
2022-08-27T18:01:41.958Z,20.80
2022-08-27T18:07:51.648Z,20.60
2022-08-27T18:14:04.730Z,20.40
2022-08-27T18:20:16.526Z,20.10
2022-08-27T18:23:19.941Z,20.10
2022-08-27T18:26:27.059Z,20.00
2022-08-27T18:29:30.929Z,19.90
2022-08-27T18:35:41.067Z,19.80
2022-08-27T18:41:50.866Z,19.70
2022-08-27T18:48:00.571Z,19.50
2022-08-27T18:51:09.131Z,19.30
2022-08-27T18:57:16.648Z,19.20
2022-08-27T19:00:20.758Z,19.10
2022-08-27T19:03:27.536Z,19.00
2022-08-27T19:06:32.927Z,18.80
2022-08-27T19:09:36.398Z,18.70
2022-08-27T19:12:39.679Z,18.60
2022-08-27T19:15:46.249Z,18.50
2022-08-27T19:18:50.237Z,18.30
2022-08-27T19:24:59.047Z,18.20
2022-08-27T19:28:02.445Z,18.20
2022-08-27T19:31:06.796Z,18.10
2022-08-27T19:34:10.669Z,17.90
2022-08-27T19:37:21.499Z,17.80
2022-08-27T19:40:26.077Z,15.70
2022-08-27T19:43:29.688Z,17.70
2022-08-27T19:52:44.934Z,17.60
2022-08-27T19:55:48.474Z,17.50
2022-08-27T19:58:56.690Z,17.50
2022-08-27T20:02:02.526Z,17.60
2022-08-27T20:05:17.869Z,17.50
2022-08-27T20:08:23.398Z,17.40
2022-08-27T20:11:27.225Z,17.30
2022-08-27T20:14:30.554Z,17.10
2022-08-27T20:17:34.816Z,17.00
2022-08-27T20:20:38.929Z,17.10
2022-08-27T20:26:47.432Z,16.90
2022-08-27T20:29:50.851Z,16.80
2022-08-27T20:32:54.173Z,16.80
2022-08-27T20:35:59.770Z,16.80
2022-08-27T20:39:07.552Z,16.70
2022-08-27T20:42:11.612Z,16.60
2022-08-27T20:45:15.762Z,17.50
2022-08-27T20:48:19.569Z,16.40
2022-08-27T20:51:23.261Z,16.40
2022-08-27T20:57:31.881Z,16.40
2022-08-27T21:00:36.682Z,16.30
2022-08-27T21:03:40.177Z,16.30
2022-08-27T21:06:43.592Z,16.30
2022-08-27T21:09:56.130Z,16.30
2022-08-27T21:13:03.369Z,16.20
2022-08-27T21:16:08.826Z,16.20
2022-08-27T21:19:12.444Z,16.10
2022-08-27T21:22:15.949Z,15.90
2022-08-27T21:25:25.237Z,16.00
2022-08-27T21:28:28.912Z,15.90
2022-08-27T21:31:32.365Z,15.80
2022-08-27T21:34:35.835Z,15.80
2022-08-27T21:37:39.250Z,15.70
2022-08-27T21:43:47.951Z,15.70
2022-08-27T21:46:51.321Z,15.60
2022-08-27T21:49:54.690Z,15.70
2022-08-27T21:52:58.015Z,15.70
2022-08-27T21:56:02.648Z,15.60
2022-08-27T21:59:06.067Z,15.60
2022-08-27T22:02:28.897Z,15.50
2022-08-27T22:05:32.990Z,15.50
2022-08-27T22:08:36.490Z,15.50
2022-08-27T22:11:41.660Z,15.50
2022-08-27T22:14:47.982Z,15.40
2022-08-27T22:17:51.547Z,15.40
2022-08-27T22:20:54.985Z,15.40
2022-08-27T22:23:58.357Z,15.30
2022-08-27T22:30:11.133Z,15.30
2022-08-27T22:36:18.672Z,15.20
2022-08-27T22:39:21.984Z,15.10
2022-08-27T22:45:32.454Z,15.10
2022-08-27T22:48:35.843Z,15.00
2022-08-27T22:54:42.823Z,15.00
2022-08-27T22:57:47.742Z,15.00
2022-08-27T23:00:52.702Z,15.00
2022-08-27T23:03:56.738Z,15.00
2022-08-27T23:07:01.041Z,15.00
2022-08-27T23:10:05.621Z,15.00
2022-08-27T23:16:15.598Z,14.90
2022-08-27T23:19:18.954Z,15.00
2022-08-27T23:22:22.378Z,15.00
2022-08-27T23:25:45.091Z,14.90
2022-08-27T23:28:49.796Z,15.00
2022-08-27T23:31:54.018Z,14.90
2022-08-27T23:34:57.549Z,14.90
2022-08-27T23:38:00.852Z,14.90
2022-08-27T23:47:12.878Z,14.80
2022-08-27T23:50:16.476Z,14.80
2022-08-27T23:53:19.842Z,14.70
2022-08-27T23:56:29.911Z,14.70
2022-08-27T23:59:35.235Z,14.70
